createdAt,value
2023-04-18T00:02:02.775Z,66.27
2023-04-18T00:04:29.302Z,65.41
2023-04-18T00:06:55.753Z,66.36
2023-04-18T00:09:22.165Z,65.48
2023-04-18T00:11:48.691Z,66.56
2023-04-18T00:14:15.198Z,66.08
2023-04-18T00:16:42.265Z,65.80
2023-04-18T00:19:09.500Z,66.46
2023-04-18T00:21:37.117Z,66.56
2023-04-18T00:24:03.560Z,66.90
2023-04-18T00:26:29.953Z,67.14
2023-04-18T00:28:57.362Z,66.95
2023-04-18T00:31:23.844Z,66.89
2023-04-18T00:33:50.655Z,67.76
2023-04-18T00:36:17.119Z,67.02
2023-04-18T00:38:44.786Z,67.70
2023-04-18T00:41:11.142Z,67.59
2023-04-18T00:43:44.859Z,67.83
2023-04-18T00:46:11.273Z,67.54
2023-04-18T00:48:39.077Z,67.93
2023-04-18T00:51:07.476Z,67.96
2023-04-18T00:53:33.851Z,67.27
2023-04-18T00:56:00.240Z,67.35
2023-04-18T00:58:26.670Z,67.12
2023-04-18T01:00:54.588Z,67.15
2023-04-18T01:03:22.844Z,67.46
2023-04-18T01:05:49.586Z,67.55
2023-04-18T01:08:18.397Z,68.16
2023-04-18T01:10:45.105Z,68.35
2023-04-18T01:13:20.110Z,68.43
2023-04-18T01:15:48.837Z,68.66
2023-04-18T01:18:19.062Z,67.64
2023-04-18T01:20:48.416Z,68.35
2023-04-18T01:23:16.340Z,68.97
2023-04-18T01:25:43.360Z,69.11
2023-04-18T01:28:10.237Z,68.91
2023-04-18T01:30:36.812Z,68.83
2023-04-18T01:33:05.090Z,68.78
2023-04-18T01:35:32.903Z,68.51
2023-04-18T01:38:00.214Z,68.87
2023-04-18T01:40:27.535Z,68.89
2023-04-18T01:42:53.990Z,68.11
2023-04-18T01:45:20.535Z,68.80
2023-04-18T01:47:47.041Z,69.04
2023-04-18T01:50:17.402Z,68.66
2023-04-18T01:52:43.859Z,68.61
2023-04-18T01:55:10.566Z,68.91
2023-04-18T01:57:38.334Z,68.15
2023-04-18T02:00:06.189Z,68.67
2023-04-18T02:02:41.079Z,68.88
2023-04-18T02:05:07.994Z,67.97
2023-04-18T02:07:37.728Z,67.79
2023-04-18T02:10:05.217Z,68.36
2023-04-18T02:12:31.993Z,68.27
2023-04-18T02:14:59.352Z,68.22
2023-04-18T02:17:25.804Z,68.12
2023-04-18T02:19:54.230Z,68.59
2023-04-18T02:22:20.605Z,68.30
2023-04-18T02:24:47.986Z,69.29
2023-04-18T02:27:15.003Z,68.56
2023-04-18T02:29:41.428Z,69.17
2023-04-18T02:32:08.204Z,69.07
2023-04-18T02:34:36.168Z,68.84
2023-04-18T02:37:02.586Z,69.43
2023-04-18T02:39:29.016Z,69.57
2023-04-18T02:41:55.537Z,69.45
2023-04-18T02:44:24.257Z,69.75
2023-04-18T02:46:54.513Z,70.02
2023-04-18T02:49:20.938Z,70.42
2023-04-18T02:51:47.652Z,69.65
2023-04-18T02:54:20.563Z,69.72
2023-04-18T02:56:54.673Z,69.11
2023-04-18T02:59:43.975Z,69.41
2023-04-18T03:02:29.666Z,69.63
2023-04-18T03:05:02.238Z,70.43
2023-04-18T03:07:28.710Z,70.38
2023-04-18T03:09:55.710Z,70.65
2023-04-18T03:12:26.589Z,70.35
2023-04-18T03:14:53.672Z,69.71
2023-04-18T03:17:20.864Z,70.55
2023-04-18T03:19:48.853Z,70.56
2023-04-18T03:22:17.907Z,70.78
2023-04-18T03:24:51.490Z,71.21
2023-04-18T03:27:19.221Z,70.93
2023-04-18T03:29:46.862Z,71.11
2023-04-18T03:32:13.772Z,70.80
2023-04-18T03:34:40.131Z,71.25
2023-04-18T03:37:08.129Z,71.12
2023-04-18T03:39:40.589Z,71.13
2023-04-18T03:42:07.167Z,70.86
2023-04-18T03:44:34.506Z,70.59
2023-04-18T03:47:00.971Z,70.61
2023-04-18T03:49:29.433Z,70.36
2023-04-18T03:51:55.871Z,71.17
2023-04-18T03:54:24.170Z,71.23
2023-04-18T03:56:50.659Z,71.27
2023-04-18T03:59:17.666Z,71.08
2023-04-18T04:01:47.974Z,71.76
2023-04-18T04:04:15.293Z,70.35
2023-04-18T04:06:43.561Z,70.68
2023-04-18T04:09:09.985Z,70.55
2023-04-18T04:11:36.530Z,70.28
2023-04-18T04:14:05.618Z,70.41
2023-04-18T04:16:38.127Z,70.14
2023-04-18T04:19:06.274Z,69.92
2023-04-18T04:21:38.955Z,70.45
2023-04-18T04:24:08.307Z,70.21
2023-04-18T04:26:39.261Z,70.32
2023-04-18T04:29:16.236Z,70.55
2023-04-18T04:31:44.312Z,70.43
2023-04-18T04:34:10.668Z,70.08
2023-04-18T04:36:37.652Z,70.17
2023-04-18T04:39:05.851Z,70.50
2023-04-18T04:41:49.361Z,70.18
2023-04-18T04:44:18.366Z,69.85
2023-04-18T04:46:44.875Z,69.64
2023-04-18T04:49:17.930Z,69.78
2023-04-18T04:51:44.335Z,69.89
2023-04-18T04:54:10.725Z,69.31
2023-04-18T04:56:37.093Z,69.61
2023-04-18T04:59:04.520Z,69.70
2023-04-18T05:01:35.446Z,69.96
2023-04-18T05:04:01.998Z,69.85
2023-04-18T05:06:28.639Z,70.09
2023-04-18T05:08:56.659Z,70.53
2023-04-18T05:11:23.141Z,69.94
2023-04-18T05:13:49.508Z,70.35
2023-04-18T05:16:15.895Z,70.32
2023-04-18T05:18:42.311Z,69.98
2023-04-18T05:21:08.848Z,70.28
2023-04-18T05:23:36.929Z,69.92
2023-04-18T05:26:04.791Z,70.15
2023-04-18T05:28:31.410Z,69.96
2023-04-18T05:31:01.187Z,70.00
2023-04-18T05:33:31.639Z,69.86
2023-04-18T05:35:58.823Z,70.29
2023-04-18T05:38:25.478Z,70.06
2023-04-18T05:40:51.924Z,69.97
2023-04-18T05:43:19.360Z,70.20
2023-04-18T05:45:46.118Z,70.42
2023-04-18T05:48:12.510Z,70.27
2023-04-18T05:50:39.009Z,70.06
2023-04-18T05:53:05.561Z,70.41
2023-04-18T05:55:32.440Z,70.09
2023-04-18T05:57:58.835Z,70.08
2023-04-18T06:00:25.213Z,70.02
2023-04-18T06:02:51.686Z,70.55
2023-04-18T06:05:18.361Z,70.14
2023-04-18T06:07:45.080Z,69.88
2023-04-18T06:10:13.310Z,69.53
2023-04-18T06:12:40.423Z,69.87
2023-04-18T06:15:07.414Z,70.28
2023-04-18T06:17:34.845Z,69.69
2023-04-18T06:20:01.814Z,70.11
2023-04-18T06:22:28.201Z,70.14
2023-04-18T06:24:55.813Z,68.62
2023-04-18T06:27:30.575Z,68.05
2023-04-18T06:29:58.135Z,67.53
2023-04-18T06:32:24.544Z,66.68
2023-04-18T06:34:51.096Z,67.60
2023-04-18T06:37:17.634Z,66.27
2023-04-18T06:39:44.033Z,65.76
2023-04-18T06:42:10.405Z,65.19
2023-04-18T06:44:43.952Z,64.56
2023-04-18T06:47:11.033Z,64.80
2023-04-18T06:49:37.470Z,64.65
2023-04-18T06:52:03.848Z,65.09
2023-04-18T06:54:30.216Z,65.47
2023-04-18T06:56:57.161Z,64.39
2023-04-18T06:59:23.546Z,64.82
2023-04-18T07:01:51.367Z,64.29
2023-04-18T07:04:18.148Z,64.95
2023-04-18T07:06:44.993Z,64.37
2023-04-18T07:09:11.395Z,64.26
2023-04-18T07:11:39.085Z,65.07
2023-04-18T07:14:05.511Z,64.93
2023-04-18T07:16:31.989Z,64.42
2023-04-18T07:18:58.410Z,64.70
2023-04-18T07:21:24.799Z,64.60
2023-04-18T07:23:51.304Z,65.55
2023-04-18T07:26:17.678Z,64.81
2023-04-18T07:28:44.041Z,65.11
2023-04-18T07:31:11.247Z,64.80
2023-04-18T07:33:38.611Z,65.85
2023-04-18T07:36:06.034Z,65.30
2023-04-18T07:38:35.103Z,64.97
2023-04-18T07:41:03.212Z,64.93
2023-04-18T07:43:29.681Z,64.38
2023-04-18T07:45:56.159Z,64.91
2023-04-18T07:48:22.796Z,64.58
2023-04-18T07:50:49.461Z,64.44
2023-04-18T07:53:15.935Z,64.61
2023-04-18T07:55:43.222Z,64.09
2023-04-18T07:58:10.065Z,65.37
2023-04-18T08:00:38.704Z,65.07
2023-04-18T08:03:07.561Z,64.97
2023-04-18T08:05:34.149Z,64.83
2023-04-18T08:08:00.650Z,65.19
2023-04-18T08:10:27.084Z,64.99
2023-04-18T08:12:53.477Z,64.51
2023-04-18T08:15:19.895Z,65.10
2023-04-18T08:17:48.906Z,64.06
2023-04-18T08:20:15.474Z,64.58
2023-04-18T08:22:57.425Z,65.11
2023-04-18T08:25:28.258Z,65.98
2023-04-18T08:27:55.228Z,65.92
2023-04-18T08:30:21.646Z,65.66
2023-04-18T08:32:48.999Z,65.34
2023-04-18T08:35:15.994Z,63.88
2023-04-18T08:37:43.167Z,64.22
2023-04-18T08:40:09.586Z,63.42
2023-04-18T08:42:38.212Z,63.28
2023-04-18T08:45:06.827Z,64.65
2023-04-18T08:47:35.082Z,64.88
2023-04-18T08:50:01.644Z,64.66
2023-04-18T08:52:30.728Z,63.83
2023-04-18T08:54:57.348Z,63.83
2023-04-18T08:57:26.854Z,62.61
2023-04-18T08:59:54.263Z,63.21
2023-04-18T09:02:23.960Z,63.28
2023-04-18T09:04:53.467Z,64.08
2023-04-18T09:07:28.368Z,62.96
2023-04-18T09:09:57.377Z,61.73
2023-04-18T09:12:26.331Z,63.67
2023-04-18T09:14:57.573Z,64.06
2023-04-18T09:17:34.930Z,62.24
2023-04-18T09:20:05.024Z,62.00
2023-04-18T09:22:48.517Z,61.52
2023-04-18T09:25:30.130Z,61.84
2023-04-18T09:28:00.768Z,62.43
2023-04-18T09:30:39.212Z,64.14
2023-04-18T09:33:09.343Z,65.79
2023-04-18T09:35:37.571Z,64.03
2023-04-18T09:38:05.493Z,65.22
2023-04-18T09:40:32.962Z,64.64
2023-04-18T09:42:59.846Z,64.21
2023-04-18T09:45:26.835Z,64.01
2023-04-18T09:47:53.864Z,64.49
2023-04-18T09:50:20.884Z,64.49
2023-04-18T09:52:48.300Z,63.84
2023-04-18T09:55:17.420Z,63.61
2023-04-18T09:57:47.947Z,62.98
2023-04-18T10:00:26.311Z,63.48
2023-04-18T10:03:04.929Z,62.91
2023-04-18T10:05:34.077Z,62.59
2023-04-18T10:08:00.949Z,62.59
2023-04-18T10:10:28.303Z,61.91
2023-04-18T10:12:56.638Z,61.10
2023-04-18T10:15:25.311Z,61.42
2023-04-18T10:18:05.684Z,61.43
2023-04-18T10:20:34.866Z,61.49
2023-04-18T10:23:40.056Z,60.52
2023-04-18T10:26:11.128Z,60.35
2023-04-18T10:28:54.579Z,60.08
2023-04-18T10:31:23.339Z,61.21
2023-04-18T10:34:17.679Z,59.51
2023-04-18T10:37:03.931Z,59.01
2023-04-18T10:39:30.356Z,58.98
2023-04-18T10:41:56.725Z,57.84
2023-04-18T10:44:23.737Z,57.26
2023-04-18T10:46:50.449Z,58.34
2023-04-18T10:49:31.172Z,58.29
2023-04-18T10:52:00.633Z,58.52
2023-04-18T10:54:36.908Z,58.66
2023-04-18T10:57:04.606Z,58.93
2023-04-18T10:59:32.939Z,58.72
2023-04-18T11:02:20.706Z,58.71
2023-04-18T11:04:54.012Z,60.24
2023-04-18T11:07:38.765Z,61.30
2023-04-18T11:10:06.464Z,61.42
2023-04-18T11:12:35.799Z,60.99
2023-04-18T11:15:09.341Z,62.08
2023-04-18T11:17:39.713Z,61.89
2023-04-18T11:20:13.001Z,61.55
2023-04-18T11:22:52.129Z,60.10
2023-04-18T11:25:23.590Z,59.04
2023-04-18T11:27:57.011Z,58.56
2023-04-18T11:30:23.494Z,59.00
2023-04-18T11:32:49.965Z,58.80
2023-04-18T11:35:16.467Z,57.79
2023-04-18T11:37:45.502Z,58.16
2023-04-18T11:40:13.926Z,58.77
2023-04-18T11:42:41.429Z,59.01
2023-04-18T11:45:14.748Z,58.26
2023-04-18T11:47:43.017Z,57.82
2023-04-18T11:50:11.525Z,56.58
2023-04-18T11:52:40.979Z,57.27
2023-04-18T11:55:18.350Z,57.07
2023-04-18T11:57:55.357Z,56.64
2023-04-18T12:00:38.396Z,56.32
2023-04-18T12:03:12.671Z,56.18
2023-04-18T12:05:41.005Z,55.18
2023-04-18T12:08:14.153Z,55.12
2023-04-18T12:10:51.671Z,53.96
2023-04-18T12:13:19.077Z,54.05
2023-04-18T12:15:46.756Z,51.69
2023-04-18T12:18:15.184Z,51.58
2023-04-18T12:20:53.961Z,51.03
2023-04-18T12:23:39.685Z,45.80
2023-04-18T12:26:08.267Z,45.43
2023-04-18T12:28:35.363Z,44.06
2023-04-18T12:31:02.163Z,42.82
2023-04-18T12:33:28.662Z,40.95
2023-04-18T12:35:55.954Z,41.44
2023-04-18T12:38:23.461Z,46.10
2023-04-18T12:40:51.177Z,47.72
2023-04-18T12:43:18.492Z,49.48
2023-04-18T12:45:47.820Z,49.82
2023-04-18T12:48:14.181Z,46.54
2023-04-18T12:50:40.787Z,45.28
2023-04-18T12:53:07.296Z,45.73
2023-04-18T12:55:33.860Z,48.55
2023-04-18T12:58:00.581Z,50.39
2023-04-18T13:00:29.954Z,51.23
2023-04-18T13:02:56.904Z,51.60
2023-04-18T13:05:27.010Z,50.99
2023-04-18T13:08:04.779Z,49.57
2023-04-18T13:10:39.515Z,47.56
2023-04-18T13:13:06.035Z,48.36
2023-04-18T13:15:32.447Z,45.58
2023-04-18T13:18:04.237Z,46.55
2023-04-18T13:20:30.819Z,42.11
2023-04-18T13:22:57.210Z,39.04
2023-04-18T13:25:23.781Z,39.11
2023-04-18T13:27:50.321Z,39.94
2023-04-18T13:30:16.701Z,36.95
2023-04-18T13:32:43.924Z,36.73
2023-04-18T13:35:11.126Z,38.94
2023-04-18T13:37:38.062Z,40.66
2023-04-18T13:40:06.386Z,41.66
2023-04-18T13:42:37.439Z,44.30
2023-04-18T13:45:04.430Z,45.89
2023-04-18T13:47:30.918Z,47.23
2023-04-18T13:49:57.839Z,47.53
2023-04-18T13:52:26.400Z,47.66
2023-04-18T13:54:55.104Z,48.48
2023-04-18T13:57:21.939Z,49.74
2023-04-18T13:59:48.816Z,49.86
2023-04-18T14:02:15.304Z,50.90
2023-04-18T14:04:41.975Z,50.38
2023-04-18T14:07:08.985Z,51.86
2023-04-18T14:09:35.370Z,51.95
2023-04-18T14:12:02.005Z,53.96
2023-04-18T14:14:28.586Z,54.48
2023-04-18T14:16:55.037Z,54.36
2023-04-18T14:19:21.574Z,54.51
2023-04-18T14:21:48.457Z,53.72
2023-04-18T14:24:15.009Z,54.48
2023-04-18T14:26:41.467Z,53.75
2023-04-18T14:29:07.831Z,53.32
2023-04-18T14:31:34.252Z,53.92
2023-04-18T14:34:00.643Z,53.84
2023-04-18T14:36:27.586Z,54.52
2023-04-18T14:38:54.737Z,54.18
2023-04-18T14:41:21.305Z,54.65
2023-04-18T14:43:47.891Z,55.92
2023-04-18T14:46:16.638Z,55.33
2023-04-18T14:48:47.138Z,55.21
2023-04-18T14:51:15.801Z,56.21
2023-04-18T14:53:42.428Z,55.53
2023-04-18T14:56:08.807Z,56.30
2023-04-18T14:58:35.211Z,56.97
2023-04-18T15:01:01.666Z,57.29
2023-04-18T15:03:28.188Z,57.29
2023-04-18T15:05:54.959Z,58.35
2023-04-18T15:08:21.336Z,57.39
2023-04-18T15:10:47.686Z,57.29
2023-04-18T15:13:14.255Z,57.03
2023-04-18T15:15:40.936Z,57.05
2023-04-18T15:18:08.326Z,57.09
2023-04-18T15:20:36.862Z,56.92
2023-04-18T15:23:03.323Z,57.50
2023-04-18T15:25:30.507Z,56.85
2023-04-18T15:27:58.102Z,57.33
2023-04-18T15:30:24.894Z,57.63
2023-04-18T15:32:52.174Z,57.61
2023-04-18T15:35:18.827Z,57.25
2023-04-18T15:37:45.325Z,57.26
2023-04-18T15:40:16.037Z,57.65
2023-04-18T15:42:43.470Z,58.47
2023-04-18T15:45:11.071Z,58.50
2023-04-18T15:47:38.660Z,57.89
2023-04-18T15:50:05.736Z,57.71
2023-04-18T15:52:32.126Z,58.34
2023-04-18T15:54:58.780Z,58.89
2023-04-18T15:57:25.208Z,59.16
2023-04-18T15:59:51.577Z,59.74
2023-04-18T16:02:18.064Z,60.76
2023-04-18T16:04:44.641Z,60.61
2023-04-18T16:07:11.548Z,61.52
2023-04-18T16:09:37.956Z,60.51
2023-04-18T16:12:04.666Z,60.59
2023-04-18T16:14:31.265Z,60.87
2023-04-18T16:16:58.936Z,61.83
2023-04-18T16:19:25.338Z,60.23
2023-04-18T16:21:52.150Z,61.41
2023-04-18T16:24:18.832Z,60.42
2023-04-18T16:26:45.216Z,60.54
2023-04-18T16:29:11.615Z,61.72
2023-04-18T16:31:38.256Z,62.92
2023-04-18T16:34:04.706Z,62.18
2023-04-18T16:36:34.365Z,62.01
2023-04-18T16:39:00.764Z,62.55
2023-04-18T16:41:27.544Z,62.91
2023-04-18T16:43:53.917Z,62.85
2023-04-18T16:46:20.334Z,62.75
2023-04-18T16:48:46.755Z,63.14
2023-04-18T16:51:13.214Z,63.25
2023-04-18T16:53:39.812Z,63.25
2023-04-18T16:56:07.811Z,63.07
2023-04-18T16:58:34.359Z,63.60
2023-04-18T17:01:03.642Z,63.57
2023-04-18T17:03:30.085Z,62.49
2023-04-18T17:05:56.599Z,63.51
2023-04-18T17:08:24.007Z,62.86
2023-04-18T17:10:51.817Z,64.08
2023-04-18T17:13:19.334Z,62.90
2023-04-18T17:15:45.996Z,62.99
2023-04-18T17:18:12.486Z,62.24
2023-04-18T17:20:38.920Z,63.59
2023-04-18T17:23:05.348Z,63.90
2023-04-18T17:25:31.803Z,63.01
2023-04-18T17:28:02.837Z,63.62
2023-04-18T17:30:29.635Z,63.77
2023-04-18T17:32:56.060Z,63.27
2023-04-18T17:35:22.547Z,64.59
2023-04-18T17:37:49.612Z,64.01
2023-04-18T17:40:15.977Z,63.83
2023-04-18T17:42:42.487Z,64.00
2023-04-18T17:45:09.782Z,64.94
2023-04-18T17:47:36.655Z,64.10
2023-04-18T17:50:06.999Z,64.17
2023-04-18T17:52:33.452Z,64.78
2023-04-18T17:55:01.741Z,64.27
2023-04-18T17:57:30.297Z,64.22
2023-04-18T17:59:56.696Z,63.98
2023-04-18T18:02:28.047Z,64.70
2023-04-18T18:04:54.485Z,64.41
2023-04-18T18:07:20.880Z,64.25
2023-04-18T18:09:47.231Z,64.54
2023-04-18T18:12:13.650Z,64.54
2023-04-18T18:14:43.032Z,64.20
2023-04-18T18:17:09.516Z,64.71
2023-04-18T18:19:38.694Z,65.54
2023-04-18T18:22:05.156Z,65.08
2023-04-18T18:24:31.538Z,65.63
2023-04-18T18:26:58.818Z,65.58
2023-04-18T18:29:25.323Z,66.04
2023-04-18T18:31:51.769Z,66.02
2023-04-18T18:34:19.744Z,66.76
2023-04-18T18:36:46.336Z,66.36
2023-04-18T18:39:14.502Z,66.43
2023-04-18T18:41:41.047Z,66.54
2023-04-18T18:44:07.421Z,67.34
2023-04-18T18:46:33.982Z,67.36
2023-04-18T18:49:00.450Z,67.16
2023-04-18T18:51:27.826Z,67.52
2023-04-18T18:53:55.120Z,67.71
2023-04-18T18:56:21.472Z,67.79
2023-04-18T18:58:47.946Z,67.41
2023-04-18T19:01:14.414Z,68.08
2023-04-18T19:03:41.006Z,67.61
2023-04-18T19:06:08.347Z,68.28
2023-04-18T19:08:35.041Z,67.99
2023-04-18T19:11:01.426Z,67.73
2023-04-18T19:13:27.842Z,68.15
2023-04-18T19:15:54.223Z,68.17
2023-04-18T19:18:21.231Z,68.41
2023-04-18T19:20:52.106Z,68.85
2023-04-18T19:23:19.284Z,68.62
2023-04-18T19:25:46.552Z,69.39
2023-04-18T19:28:14.254Z,69.14
2023-04-18T19:30:42.163Z,68.43
2023-04-18T19:33:08.736Z,68.43
2023-04-18T19:35:37.789Z,69.07
2023-04-18T19:38:04.388Z,68.67
2023-04-18T19:40:30.809Z,69.11
2023-04-18T19:42:57.864Z,68.51
2023-04-18T19:45:24.420Z,68.97
2023-04-18T19:47:50.921Z,69.64
2023-04-18T19:50:17.412Z,69.67
2023-04-18T19:52:43.757Z,69.70
2023-04-18T19:55:10.242Z,69.59
2023-04-18T19:57:41.146Z,69.60
2023-04-18T20:00:12.496Z,69.36
2023-04-18T20:02:40.644Z,70.03
2023-04-18T20:05:08.590Z,70.41
2023-04-18T20:07:35.770Z,70.37
2023-04-18T20:10:02.233Z,70.08
2023-04-18T20:12:28.794Z,70.08
2023-04-18T20:14:55.833Z,69.88
2023-04-18T20:17:22.287Z,70.30
2023-04-18T20:19:49.699Z,70.52
2023-04-18T20:22:16.691Z,70.81
2023-04-18T20:24:44.865Z,70.08
2023-04-18T20:27:11.580Z,69.92
2023-04-18T20:29:38.046Z,71.00
2023-04-18T20:32:04.667Z,69.67
2023-04-18T20:34:31.400Z,70.91
2023-04-18T20:36:58.624Z,71.25
2023-04-18T20:39:25.156Z,70.28
2023-04-18T20:41:52.311Z,70.11
2023-04-18T20:44:21.882Z,70.64
2023-04-18T20:46:48.303Z,70.01
2023-04-18T20:49:14.796Z,69.93
2023-04-18T20:51:41.282Z,70.01
2023-04-18T20:54:07.643Z,69.76
2023-04-18T20:56:36.333Z,69.69
2023-04-18T20:59:04.458Z,69.80
2023-04-18T21:01:31.347Z,68.67
2023-04-18T21:03:58.048Z,70.24
2023-04-18T21:06:24.603Z,69.24
2023-04-18T21:08:51.029Z,68.62
2023-04-18T21:11:17.418Z,68.72
2023-04-18T21:13:43.776Z,67.92
2023-04-18T21:16:10.599Z,69.28
2023-04-18T21:18:37.125Z,67.91
2023-04-18T21:21:04.478Z,67.52
2023-04-18T21:23:30.915Z,68.70
2023-04-18T21:25:57.330Z,67.84
2023-04-18T21:28:23.707Z,67.89
2023-04-18T21:30:50.651Z,67.18
2023-04-18T21:33:17.041Z,67.80
2023-04-18T21:35:43.452Z,67.56
2023-04-18T21:38:09.848Z,66.91
2023-04-18T21:40:37.234Z,67.51
2023-04-18T21:43:03.829Z,67.45
2023-04-18T21:45:30.371Z,67.20
2023-04-18T21:47:56.859Z,66.70
2023-04-18T21:50:24.191Z,66.47
2023-04-18T21:52:50.566Z,67.33
2023-04-18T21:55:17.721Z,66.77
2023-04-18T21:57:44.366Z,67.60
2023-04-18T22:00:11.287Z,67.07
2023-04-18T22:02:39.558Z,67.04
2023-04-18T22:05:07.549Z,66.83
2023-04-18T22:07:38.729Z,66.94
2023-04-18T22:10:13.370Z,67.19
2023-04-18T22:12:39.977Z,66.89
2023-04-18T22:15:06.650Z,66.23
2023-04-18T22:17:35.510Z,66.96
2023-04-18T22:20:04.574Z,66.91
2023-04-18T22:22:33.009Z,66.44
2023-04-18T22:24:59.360Z,66.73
2023-04-18T22:27:25.737Z,67.21
2023-04-18T22:29:52.102Z,67.12
2023-04-18T22:32:18.826Z,67.09
2023-04-18T22:34:45.277Z,66.52
2023-04-18T22:37:11.641Z,66.74
2023-04-18T22:39:38.006Z,67.07
2023-04-18T22:42:04.793Z,66.03
2023-04-18T22:44:31.208Z,66.78
2023-04-18T22:46:57.571Z,67.21
2023-04-18T22:49:23.928Z,66.87
2023-04-18T22:51:54.085Z,67.53
2023-04-18T22:54:20.888Z,66.71
2023-04-18T22:56:49.367Z,67.08
2023-04-18T22:59:16.143Z,66.48
2023-04-18T23:01:42.529Z,66.46
2023-04-18T23:04:09.136Z,66.30
2023-04-18T23:06:36.561Z,65.96
2023-04-18T23:09:06.345Z,66.28
2023-04-18T23:11:32.729Z,65.78
2023-04-18T23:13:59.105Z,66.07
2023-04-18T23:16:25.553Z,65.74
2023-04-18T23:18:52.047Z,64.99
2023-04-18T23:21:18.444Z,65.08
2023-04-18T23:23:44.881Z,64.39
2023-04-18T23:26:13.332Z,64.51
2023-04-18T23:28:39.839Z,64.55
2023-04-18T23:31:06.303Z,63.85
2023-04-18T23:33:33.353Z,64.48
2023-04-18T23:35:59.729Z,63.70
2023-04-18T23:38:26.709Z,63.92
2023-04-18T23:40:53.235Z,63.77
2023-04-18T23:43:19.594Z,63.47
2023-04-18T23:45:45.946Z,63.98
2023-04-18T23:48:12.480Z,63.58
2023-04-18T23:50:45.951Z,64.50
2023-04-18T23:53:12.331Z,64.71
2023-04-18T23:55:38.727Z,64.74
2023-04-18T23:58:05.099Z,64.63
